createdAt,value
2019-01-21T00:00:06.556Z,66.70
2019-01-21T00:01:06.730Z,66.80
2019-01-21T00:02:06.686Z,66.80
2019-01-21T00:03:14.050Z,66.90
2019-01-21T00:05:10.626Z,67.40
2019-01-21T00:07:06.635Z,67.40
2019-01-21T00:07:11.458Z,67.30
2019-01-21T00:08:06.584Z,67.40
2019-01-21T00:09:06.650Z,67.40
2019-01-21T00:10:06.682Z,67.40
2019-01-21T00:11:06.636Z,67.60
2019-01-21T00:12:06.646Z,67.60
2019-01-21T00:13:06.609Z,67.80
2019-01-21T00:14:06.621Z,67.80
2019-01-21T00:15:06.687Z,67.90
2019-01-21T00:16:06.627Z,68.00
2019-01-21T00:17:06.655Z,68.10
2019-01-21T00:18:06.733Z,68.20
2019-01-21T00:19:06.642Z,68.60
2019-01-21T00:20:06.686Z,68.80
2019-01-21T00:21:10.954Z,69.00
2019-01-21T00:22:06.534Z,69.00
2019-01-21T00:23:06.646Z,69.30
2019-01-21T00:24:06.591Z,69.40
2019-01-21T00:25:06.629Z,69.30
2019-01-21T00:26:06.709Z,69.30
2019-01-21T00:27:11.167Z,69.30
2019-01-21T00:28:06.656Z,69.20
2019-01-21T00:29:10.889Z,69.10
2019-01-21T00:30:06.437Z,69.10
2019-01-21T00:31:06.595Z,69.10
2019-01-21T00:32:06.647Z,69.10
2019-01-21T00:33:10.841Z,69.10
2019-01-21T00:34:06.642Z,69.10
2019-01-21T00:35:06.649Z,68.90
2019-01-21T00:36:06.668Z,68.90
2019-01-21T00:37:06.637Z,68.90
2019-01-21T00:38:06.598Z,68.90
2019-01-21T00:39:08.252Z,68.80
2019-01-21T00:40:10.416Z,68.80
2019-01-21T00:41:06.569Z,68.80
2019-01-21T00:42:06.659Z,68.80
2019-01-21T00:43:08.341Z,68.80
2019-01-21T00:44:06.635Z,68.80
2019-01-21T00:45:06.669Z,68.90
2019-01-21T00:46:07.716Z,68.90
2019-01-21T00:47:06.646Z,68.90
2019-01-21T00:48:10.871Z,69.00
2019-01-21T00:49:10.981Z,69.00
2019-01-21T00:50:06.535Z,68.90
2019-01-21T00:51:06.622Z,68.90
2019-01-21T00:53:06.632Z,68.90
2019-01-21T00:53:11.767Z,68.90
2019-01-21T00:55:06.684Z,69.00
2019-01-21T00:56:06.670Z,69.00
2019-01-21T00:57:06.661Z,69.00
2019-01-21T00:58:06.723Z,69.00
2019-01-21T00:59:10.898Z,69.30
2019-01-21T01:00:06.671Z,69.10
2019-01-21T01:01:06.627Z,69.20
2019-01-21T01:02:06.686Z,69.30
2019-01-21T01:03:06.627Z,69.30
2019-01-21T01:04:11.046Z,69.40
2019-01-21T01:05:06.693Z,69.40
2019-01-21T01:06:06.726Z,69.50
2019-01-21T01:07:06.676Z,69.60
2019-01-21T01:08:06.479Z,69.80
2019-01-21T01:09:07.942Z,69.80
2019-01-21T01:10:06.638Z,69.90
2019-01-21T01:11:13.515Z,69.80
2019-01-21T01:12:06.665Z,69.70
2019-01-21T01:13:06.707Z,69.80
2019-01-21T01:14:06.699Z,69.90
2019-01-21T01:15:06.648Z,70.10
2019-01-21T01:16:06.681Z,70.20
2019-01-21T01:17:11.165Z,71.10
2019-01-21T01:18:06.709Z,71.00
2019-01-21T01:20:10.675Z,71.50
2019-01-21T01:20:11.629Z,71.10
2019-01-21T01:21:06.698Z,71.50
2019-01-21T01:23:06.704Z,71.50
2019-01-21T01:24:06.679Z,71.70
2019-01-21T01:25:06.638Z,71.80
2019-01-21T01:26:06.663Z,71.80
2019-01-21T01:27:06.704Z,72.00
2019-01-21T01:28:11.019Z,72.00
2019-01-21T01:29:06.508Z,72.00
2019-01-21T01:31:08.130Z,72.50
2019-01-21T01:32:06.707Z,72.50
2019-01-21T01:34:10.408Z,72.60
2019-01-21T01:36:06.685Z,72.90
2019-01-21T01:36:11.638Z,72.70
2019-01-21T01:37:10.667Z,73.80
2019-01-21T01:38:06.633Z,73.80
2019-01-21T01:39:06.701Z,74.20
2019-01-21T01:40:06.750Z,74.60
2019-01-21T01:41:06.752Z,74.90
2019-01-21T01:42:06.694Z,75.20
2019-01-21T01:43:13.698Z,75.50
2019-01-21T01:44:06.716Z,75.50
2019-01-21T01:45:06.668Z,75.60
2019-01-21T01:46:06.818Z,75.60
2019-01-21T01:47:06.688Z,75.70
2019-01-21T01:48:06.640Z,75.80
2019-01-21T01:49:06.704Z,76.00
2019-01-21T01:50:06.667Z,76.10
2019-01-21T01:51:06.701Z,76.10
2019-01-21T01:52:06.742Z,76.40
2019-01-21T01:54:10.676Z,76.90
2019-01-21T01:55:06.686Z,77.00
2019-01-21T01:56:06.707Z,77.10
2019-01-21T01:57:06.657Z,77.20
2019-01-21T01:58:06.770Z,77.30
2019-01-21T02:00:06.769Z,77.40
2019-01-21T02:01:06.833Z,77.50
2019-01-21T02:02:06.823Z,77.60
2019-01-21T02:03:10.117Z,77.50
2019-01-21T02:04:06.571Z,77.50
2019-01-21T02:05:08.390Z,77.50
2019-01-21T02:06:06.746Z,77.40
2019-01-21T02:07:06.794Z,77.60
2019-01-21T02:08:06.565Z,77.70
2019-01-21T02:09:06.722Z,77.80
2019-01-21T02:10:10.243Z,78.10
2019-01-21T02:11:06.741Z,78.10
2019-01-21T02:13:06.765Z,78.40
2019-01-21T02:13:11.765Z,78.10
2019-01-21T02:14:06.797Z,78.30
2019-01-21T02:15:06.772Z,78.40
2019-01-21T02:17:07.028Z,78.70
2019-01-21T02:18:06.828Z,78.80
2019-01-21T02:19:06.780Z,78.70
2019-01-21T02:20:06.722Z,78.70
2019-01-21T02:21:06.584Z,78.70
2019-01-21T02:22:06.746Z,78.70
2019-01-21T02:23:06.516Z,78.80
2019-01-21T02:24:06.750Z,78.70
2019-01-21T02:25:06.744Z,78.70
2019-01-21T02:26:06.728Z,78.60
2019-01-21T02:27:10.051Z,78.60
2019-01-21T02:28:07.678Z,78.60
2019-01-21T02:29:06.742Z,78.60
2019-01-21T02:30:06.718Z,78.60
2019-01-21T02:31:06.750Z,78.60
2019-01-21T02:32:07.529Z,78.70
2019-01-21T02:33:06.812Z,78.70
2019-01-21T02:34:07.018Z,78.80
2019-01-21T02:35:06.726Z,78.80
2019-01-21T02:36:06.737Z,78.80
2019-01-21T02:37:06.743Z,78.80
2019-01-21T02:38:08.094Z,79.10
2019-01-21T02:40:06.771Z,79.30
2019-01-21T02:40:11.631Z,79.10
2019-01-21T02:41:06.859Z,79.30
2019-01-21T02:42:06.553Z,79.50
2019-01-21T02:43:07.050Z,79.60
2019-01-21T02:44:10.668Z,79.60
2019-01-21T02:45:06.814Z,79.60
2019-01-21T02:46:07.546Z,79.70
2019-01-21T02:48:06.834Z,79.80
2019-01-21T02:48:11.724Z,79.70
2019-01-21T02:49:06.740Z,79.60
2019-01-21T02:50:06.773Z,79.70
2019-01-21T02:52:10.356Z,79.70
2019-01-21T02:52:11.900Z,79.70
2019-01-21T02:53:06.789Z,79.70
2019-01-21T02:54:06.544Z,79.70
2019-01-21T02:55:06.797Z,79.60
2019-01-21T02:56:06.601Z,79.60
2019-01-21T02:58:10.721Z,79.70
2019-01-21T02:59:06.743Z,79.70
2019-01-21T03:00:10.759Z,79.70
2019-01-21T03:01:06.793Z,79.70
2019-01-21T03:02:06.603Z,79.60
2019-01-21T03:03:06.744Z,79.60
2019-01-21T03:04:06.854Z,79.60
2019-01-21T03:05:06.654Z,79.60
2019-01-21T03:06:06.748Z,79.50
2019-01-21T03:07:10.902Z,79.40
2019-01-21T03:08:06.912Z,79.40
2019-01-21T03:09:06.806Z,79.50
2019-01-21T03:10:10.146Z,79.60
2019-01-21T03:11:10.156Z,79.50
2019-01-21T03:12:06.650Z,79.50
2019-01-21T03:13:10.902Z,79.70
2019-01-21T03:14:06.727Z,79.60
2019-01-21T03:15:06.780Z,79.60
2019-01-21T03:16:06.516Z,79.60
2019-01-21T03:17:07.097Z,79.60
2019-01-21T03:18:08.480Z,79.60
2019-01-21T03:19:06.798Z,79.60
2019-01-21T03:20:06.827Z,79.60
2019-01-21T03:21:06.709Z,79.70
2019-01-21T03:23:06.795Z,79.80
2019-01-21T03:23:11.472Z,79.80
2019-01-21T03:24:06.792Z,79.80
2019-01-21T03:25:06.479Z,79.70
2019-01-21T03:26:06.524Z,79.70
2019-01-21T03:27:06.794Z,79.70
2019-01-21T03:28:08.423Z,79.80
2019-01-21T03:29:06.886Z,79.70
2019-01-21T03:30:06.799Z,79.70
2019-01-21T03:32:06.889Z,79.80
2019-01-21T03:32:11.644Z,79.70
2019-01-21T03:33:06.837Z,79.80
2019-01-21T03:34:06.971Z,79.80
2019-01-21T03:35:06.902Z,79.80
2019-01-21T03:36:07.862Z,79.70
2019-01-21T03:37:06.786Z,79.70
2019-01-21T03:38:06.785Z,79.70
2019-01-21T03:39:06.640Z,79.70
2019-01-21T03:40:06.826Z,79.70
2019-01-21T03:41:06.801Z,79.50
2019-01-21T03:42:06.489Z,79.50
2019-01-21T03:43:06.774Z,79.50
2019-01-21T03:44:06.778Z,79.50
2019-01-21T03:45:06.877Z,79.50
2019-01-21T03:46:06.866Z,79.50
2019-01-21T03:47:06.851Z,79.60
2019-01-21T03:48:06.828Z,79.70
2019-01-21T03:49:06.591Z,79.70
2019-01-21T03:50:06.867Z,79.80
2019-01-21T03:51:07.261Z,79.90
2019-01-21T03:53:08.305Z,79.90
2019-01-21T03:54:06.798Z,79.90
2019-01-21T03:55:06.803Z,79.80
2019-01-21T03:56:06.575Z,79.80
2019-01-21T03:57:06.851Z,79.90
2019-01-21T03:58:06.786Z,79.90
2019-01-21T03:59:07.022Z,79.90
2019-01-21T04:00:06.782Z,79.90
2019-01-21T04:01:06.516Z,79.90
2019-01-21T04:02:06.830Z,79.80
2019-01-21T04:03:06.708Z,79.90
2019-01-21T04:05:06.799Z,79.90
2019-01-21T04:06:06.581Z,79.90
2019-01-21T04:07:06.811Z,79.80
2019-01-21T04:08:06.764Z,80.00
2019-01-21T04:09:07.824Z,79.90
2019-01-21T04:10:06.858Z,80.00
2019-01-21T04:11:06.542Z,79.90
2019-01-21T04:12:10.747Z,79.90
2019-01-21T04:13:10.902Z,79.90
2019-01-21T04:14:10.945Z,79.90
2019-01-21T04:15:06.886Z,79.90
2019-01-21T04:16:06.736Z,79.90
2019-01-21T04:17:07.640Z,79.80
2019-01-21T04:18:08.241Z,79.80
2019-01-21T04:19:10.470Z,79.80
2019-01-21T04:20:06.846Z,79.80
2019-01-21T04:21:07.790Z,79.70
2019-01-21T04:23:11.457Z,79.70
2019-01-21T04:24:06.865Z,80.00
2019-01-21T04:25:07.192Z,79.70
2019-01-21T04:26:06.893Z,79.70
2019-01-21T04:27:10.279Z,79.70
2019-01-21T04:28:06.685Z,79.70
2019-01-21T04:29:06.786Z,79.70
2019-01-21T04:30:10.884Z,79.70
2019-01-21T04:31:06.886Z,79.70
2019-01-21T04:32:06.839Z,79.70
2019-01-21T04:33:06.898Z,79.70
2019-01-21T04:34:06.657Z,79.70
2019-01-21T04:35:10.888Z,79.70
2019-01-21T04:37:06.876Z,79.70
2019-01-21T04:37:11.801Z,79.70
2019-01-21T04:38:06.884Z,79.70
2019-01-21T04:39:08.320Z,79.70
2019-01-21T04:40:10.402Z,79.70
2019-01-21T04:41:06.860Z,79.70
2019-01-21T04:42:07.910Z,79.70
2019-01-21T04:43:06.747Z,79.70
2019-01-21T04:44:06.889Z,79.70
2019-01-21T04:45:06.724Z,79.70
2019-01-21T04:46:06.836Z,79.70
2019-01-21T04:47:06.665Z,79.70
2019-01-21T04:48:06.868Z,79.60
2019-01-21T04:49:12.768Z,79.70
2019-01-21T04:50:13.510Z,79.70
2019-01-21T04:51:08.174Z,79.60
2019-01-21T04:52:06.920Z,79.60
2019-01-21T04:53:06.763Z,79.60
2019-01-21T04:54:06.886Z,79.60
2019-01-21T04:55:08.484Z,79.50
2019-01-21T04:56:06.908Z,79.60
2019-01-21T04:57:06.908Z,79.60
2019-01-21T04:58:13.098Z,79.60
2019-01-21T04:59:10.529Z,79.50
2019-01-21T05:00:06.941Z,79.50
2019-01-21T05:01:06.748Z,79.50
2019-01-21T05:02:06.890Z,79.50
2019-01-21T05:03:06.775Z,79.50
2019-01-21T05:04:06.914Z,79.50
2019-01-21T05:05:06.763Z,79.50
2019-01-21T05:06:06.658Z,79.50
2019-01-21T05:07:07.301Z,79.40
2019-01-21T05:08:06.887Z,79.50
2019-01-21T05:09:10.144Z,79.60
2019-01-21T05:10:06.670Z,79.50
2019-01-21T05:11:07.001Z,79.70
2019-01-21T05:12:06.724Z,79.60
2019-01-21T05:13:11.066Z,79.60
2019-01-21T05:14:06.542Z,79.70
2019-01-21T05:15:06.982Z,79.70
2019-01-21T05:16:06.753Z,79.50
2019-01-21T05:17:06.887Z,79.70
2019-01-21T05:18:06.582Z,79.70
2019-01-21T05:19:06.922Z,79.70
2019-01-21T05:20:06.905Z,79.70
2019-01-21T05:21:06.603Z,79.80
2019-01-21T05:22:06.956Z,79.70
2019-01-21T05:23:10.359Z,79.90
2019-01-21T05:24:10.835Z,79.90
2019-01-21T05:25:06.925Z,79.80
2019-01-21T05:26:06.770Z,79.90
2019-01-21T05:27:06.925Z,80.10
2019-01-21T05:28:06.784Z,80.20
2019-01-21T05:29:07.583Z,80.40
2019-01-21T05:30:06.926Z,80.40
2019-01-21T05:31:07.676Z,80.30
2019-01-21T05:32:07.246Z,80.30
2019-01-21T05:34:06.943Z,80.40
2019-01-21T05:35:06.642Z,80.40
2019-01-21T05:36:06.939Z,80.30
2019-01-21T05:37:06.763Z,80.40
2019-01-21T05:38:07.036Z,80.30
2019-01-21T05:39:06.725Z,80.30
2019-01-21T05:41:06.910Z,80.20
2019-01-21T05:42:06.647Z,80.20
2019-01-21T05:44:06.944Z,80.20
2019-01-21T05:45:06.917Z,80.20
2019-01-21T05:46:08.486Z,80.00
2019-01-21T05:47:06.929Z,80.10
2019-01-21T05:48:06.578Z,80.00
2019-01-21T05:49:06.627Z,80.10
2019-01-21T05:50:06.938Z,80.10
2019-01-21T05:51:07.701Z,80.10
2019-01-21T05:52:06.914Z,80.10
2019-01-21T05:53:07.916Z,80.00
2019-01-21T05:54:06.923Z,80.10
2019-01-21T05:55:10.332Z,80.00
2019-01-21T05:56:06.800Z,80.00
2019-01-21T05:57:10.045Z,80.10
2019-01-21T05:58:07.598Z,80.20
2019-01-21T05:59:06.949Z,80.20
2019-01-21T06:00:06.715Z,80.20
2019-01-21T06:01:06.929Z,80.20
2019-01-21T06:02:10.257Z,80.40
2019-01-21T06:03:07.014Z,80.30
2019-01-21T06:04:06.664Z,80.40
2019-01-21T06:05:07.009Z,80.40
2019-01-21T06:06:06.794Z,80.40
2019-01-21T06:07:06.887Z,80.50
2019-01-21T06:08:06.445Z,80.50
2019-01-21T06:09:06.981Z,80.50
2019-01-21T06:10:06.763Z,80.50
2019-01-21T06:11:06.967Z,80.40
2019-01-21T06:12:10.297Z,80.40
2019-01-21T06:13:06.768Z,80.40
2019-01-21T06:14:06.931Z,80.40
2019-01-21T06:15:06.706Z,80.40
2019-01-21T06:16:06.948Z,80.40
2019-01-21T06:17:10.627Z,80.20
2019-01-21T06:19:06.956Z,80.30
2019-01-21T06:20:07.883Z,80.00
2019-01-21T06:21:06.672Z,80.00
2019-01-21T06:22:06.908Z,80.00
2019-01-21T06:23:07.862Z,80.00
2019-01-21T06:24:07.054Z,80.00
2019-01-21T06:25:10.253Z,80.10
2019-01-21T06:26:06.846Z,80.10
2019-01-21T06:27:06.958Z,80.00
2019-01-21T06:29:10.532Z,80.20
2019-01-21T06:29:11.446Z,80.10
2019-01-21T06:30:06.939Z,80.00
2019-01-21T06:31:06.663Z,80.20
2019-01-21T06:32:06.962Z,80.50
2019-01-21T06:33:06.619Z,80.10
2019-01-21T06:35:10.091Z,80.10
2019-01-21T06:35:12.093Z,80.10
2019-01-21T06:36:10.194Z,80.10
2019-01-21T06:37:07.923Z,80.10
2019-01-21T06:38:06.933Z,80.10
2019-01-21T06:39:06.621Z,80.10
2019-01-21T06:40:10.846Z,80.10
2019-01-21T06:41:07.004Z,80.10
2019-01-21T06:42:06.872Z,80.10
2019-01-21T06:43:12.747Z,80.20
2019-01-21T06:44:10.902Z,80.20
2019-01-21T06:45:07.013Z,80.10
2019-01-21T06:46:06.863Z,80.10
2019-01-21T06:47:07.571Z,80.20
2019-01-21T06:48:07.001Z,80.20
2019-01-21T06:49:06.824Z,80.00
2019-01-21T06:50:08.983Z,80.10
2019-01-21T06:52:11.019Z,80.10
2019-01-21T06:53:07.560Z,80.10
2019-01-21T06:54:07.019Z,80.20
2019-01-21T06:55:06.738Z,80.20
2019-01-21T06:56:06.998Z,80.20
2019-01-21T06:57:10.378Z,80.20
2019-01-21T06:58:10.500Z,80.20
2019-01-21T06:59:10.634Z,80.10
2019-01-21T07:00:07.007Z,80.10
2019-01-21T07:01:07.064Z,80.10
2019-01-21T07:02:06.839Z,80.00
2019-01-21T07:03:06.509Z,80.00
2019-01-21T07:04:07.194Z,80.10
2019-01-21T07:05:10.535Z,80.10
2019-01-21T07:06:07.266Z,80.00
2019-01-21T07:07:07.295Z,80.00
2019-01-21T07:08:08.119Z,80.00
2019-01-21T07:09:06.818Z,80.00
2019-01-21T07:10:06.555Z,80.00
2019-01-21T07:11:07.258Z,79.90
2019-01-21T07:12:10.763Z,79.80
2019-01-21T07:13:07.271Z,79.80
2019-01-21T07:14:07.116Z,79.70
2019-01-21T07:15:08.087Z,79.80
2019-01-21T07:16:06.855Z,79.80
2019-01-21T07:17:06.736Z,79.80
2019-01-21T07:18:07.312Z,79.90
2019-01-21T07:19:11.537Z,79.80
2019-01-21T07:20:07.270Z,79.90
2019-01-21T07:21:10.763Z,79.90
2019-01-21T07:22:07.211Z,79.90
2019-01-21T07:23:07.227Z,79.90
2019-01-21T07:24:08.129Z,80.00
2019-01-21T07:25:06.805Z,80.00
2019-01-21T07:26:06.968Z,80.00
2019-01-21T07:27:10.299Z,80.00
2019-01-21T07:28:07.001Z,80.00
2019-01-21T07:29:06.982Z,80.00
2019-01-21T07:30:07.191Z,80.10
2019-01-21T07:31:07.280Z,80.30
2019-01-21T07:32:13.222Z,80.10
2019-01-21T07:33:07.199Z,80.10
2019-01-21T07:34:08.194Z,80.00
2019-01-21T07:35:07.137Z,80.10
2019-01-21T07:36:07.035Z,80.10
2019-01-21T07:37:06.885Z,80.20
2019-01-21T07:38:06.801Z,80.20
2019-01-21T07:39:07.152Z,80.10
2019-01-21T07:40:06.950Z,80.10
2019-01-21T07:41:07.186Z,80.10
2019-01-21T07:42:07.115Z,80.00
2019-01-21T07:43:07.095Z,80.00
2019-01-21T07:44:07.289Z,80.00
2019-01-21T07:45:07.170Z,80.00
2019-01-21T07:46:10.589Z,80.00
2019-01-21T07:47:07.234Z,79.90
2019-01-21T07:48:07.168Z,79.90
2019-01-21T07:49:07.258Z,80.00
2019-01-21T07:50:06.616Z,80.00
2019-01-21T07:51:07.309Z,80.00
2019-01-21T07:52:07.465Z,80.00
2019-01-21T07:53:08.277Z,79.90
2019-01-21T07:54:06.908Z,79.90
2019-01-21T07:55:07.069Z,79.90
2019-01-21T07:56:07.761Z,79.90
2019-01-21T07:57:07.146Z,80.00
2019-01-21T07:58:06.756Z,79.90
2019-01-21T08:00:07.088Z,80.00
2019-01-21T08:01:10.607Z,80.00
2019-01-21T08:02:06.741Z,80.00
2019-01-21T08:03:07.118Z,80.00
2019-01-21T08:04:06.762Z,80.10
2019-01-21T08:05:07.055Z,80.10
2019-01-21T08:06:06.736Z,80.20
2019-01-21T08:07:07.562Z,80.10
2019-01-21T08:09:07.121Z,80.10
2019-01-21T08:10:06.994Z,80.00
2019-01-21T08:11:07.106Z,80.10
2019-01-21T08:12:08.072Z,80.20
2019-01-21T08:13:06.783Z,80.30
2019-01-21T08:15:07.088Z,80.20
2019-01-21T08:15:12.081Z,80.20
2019-01-21T08:16:07.745Z,80.40
2019-01-21T08:17:07.035Z,80.30
2019-01-21T08:18:06.733Z,80.40
2019-01-21T08:19:07.068Z,80.50
2019-01-21T08:20:06.748Z,80.50
2019-01-21T08:21:07.359Z,80.50
2019-01-21T08:22:07.261Z,80.60
2019-01-21T08:23:08.147Z,80.70
2019-01-21T08:24:06.980Z,80.70
2019-01-21T08:25:06.674Z,80.60
2019-01-21T08:26:07.391Z,80.60
2019-01-21T08:27:07.357Z,80.60
2019-01-21T08:28:07.345Z,80.80
2019-01-21T08:29:10.628Z,80.70
2019-01-21T08:31:10.217Z,80.80
2019-01-21T08:32:07.108Z,80.80
2019-01-21T08:33:07.268Z,80.80
2019-01-21T08:34:13.086Z,80.80
2019-01-21T08:35:06.944Z,80.80
2019-01-21T08:36:06.668Z,80.80
2019-01-21T08:37:07.370Z,81.00
2019-01-21T08:38:07.254Z,81.00
2019-01-21T08:39:07.397Z,81.00
2019-01-21T08:40:08.430Z,81.00
2019-01-21T08:41:08.195Z,81.00
2019-01-21T08:42:06.908Z,81.00
2019-01-21T08:43:06.803Z,81.00
2019-01-21T08:44:07.331Z,81.20
2019-01-21T08:45:10.643Z,81.20
2019-01-21T08:46:07.301Z,81.10
2019-01-21T08:47:10.776Z,81.20
2019-01-21T08:48:07.317Z,81.20
2019-01-21T08:49:10.668Z,81.30
2019-01-21T08:50:08.432Z,81.30
2019-01-21T08:51:07.073Z,81.30
2019-01-21T08:52:11.098Z,81.30
2019-01-21T08:53:07.796Z,81.30
2019-01-21T08:54:11.756Z,81.30
2019-01-21T08:55:07.311Z,81.30
2019-01-21T08:56:10.648Z,81.30
2019-01-21T08:57:07.410Z,81.40
2019-01-21T08:58:07.191Z,81.40
2019-01-21T08:59:08.097Z,81.50
2019-01-21T09:00:06.825Z,81.50
2019-01-21T09:01:07.370Z,81.50
2019-01-21T09:02:07.293Z,81.50
2019-01-21T09:03:07.195Z,81.60
2019-01-21T09:04:07.208Z,81.60
2019-01-21T09:05:10.552Z,81.60
2019-01-21T09:06:08.322Z,81.60
2019-01-21T09:07:07.057Z,81.60
2019-01-21T09:08:06.923Z,81.60
2019-01-21T09:09:07.420Z,81.50
2019-01-21T09:10:08.295Z,81.70
2019-01-21T09:11:06.924Z,81.70
2019-01-21T09:12:07.428Z,81.80
2019-01-21T09:13:10.758Z,81.80
2019-01-21T09:14:07.375Z,81.80
2019-01-21T09:15:08.240Z,81.80
2019-01-21T09:16:07.940Z,81.90
2019-01-21T09:17:11.344Z,82.00
2019-01-21T09:18:13.192Z,82.10
2019-01-21T09:19:07.063Z,82.00
2019-01-21T09:20:11.019Z,82.00
2019-01-21T09:21:07.582Z,82.00
2019-01-21T09:22:06.982Z,82.00
2019-01-21T09:23:06.823Z,82.10
2019-01-21T09:24:16.191Z,82.30
2019-01-21T09:25:06.798Z,82.40
2019-01-21T09:26:07.111Z,82.40
2019-01-21T09:27:07.844Z,82.30
2019-01-21T09:29:06.545Z,82.30
2019-01-21T09:29:11.752Z,82.30
2019-01-21T09:30:07.153Z,82.30
2019-01-21T09:31:07.986Z,82.40
2019-01-21T09:33:07.702Z,82.30
2019-01-21T09:34:07.130Z,82.30
2019-01-21T09:35:07.139Z,82.30
2019-01-21T09:36:06.943Z,82.40
2019-01-21T09:37:06.576Z,82.30
2019-01-21T09:38:07.125Z,82.40
2019-01-21T09:39:06.856Z,82.40
2019-01-21T09:40:07.138Z,82.50
2019-01-21T09:41:06.894Z,82.50
2019-01-21T09:42:07.201Z,82.50
2019-01-21T09:43:06.996Z,82.50
2019-01-21T09:44:04.984Z,82.40
2019-01-21T09:45:07.114Z,82.40
2019-01-21T09:46:06.874Z,82.30
2019-01-21T09:47:07.682Z,82.40
2019-01-21T09:48:06.639Z,82.40
2019-01-21T09:49:07.166Z,82.30
2019-01-21T09:50:07.889Z,82.30
2019-01-21T09:51:07.167Z,82.20
2019-01-21T09:52:10.299Z,82.20
2019-01-21T09:53:07.778Z,82.30
2019-01-21T09:54:07.133Z,82.30
2019-01-21T09:55:06.652Z,82.20
2019-01-21T09:56:07.178Z,82.20
2019-01-21T09:57:06.644Z,82.10
2019-01-21T09:58:10.883Z,82.10
2019-01-21T09:59:07.182Z,82.10
2019-01-21T10:00:06.917Z,82.10
2019-01-21T10:01:05.027Z,82.10
2019-01-21T10:02:08.517Z,82.20
2019-01-21T10:03:06.984Z,82.20
2019-01-21T10:04:06.631Z,82.20
2019-01-21T10:05:10.992Z,82.20
2019-01-21T10:06:07.195Z,82.20
2019-01-21T10:07:07.892Z,82.20
2019-01-21T10:08:07.131Z,82.20
2019-01-21T10:09:06.664Z,82.10
2019-01-21T10:10:08.288Z,82.10
2019-01-21T10:11:07.185Z,82.10
2019-01-21T10:12:06.814Z,82.10
2019-01-21T10:13:08.481Z,82.10
2019-01-21T10:14:07.028Z,82.00
2019-01-21T10:15:07.823Z,82.10
2019-01-21T10:16:07.143Z,81.90
2019-01-21T10:17:07.877Z,82.00
2019-01-21T10:18:07.175Z,82.00
2019-01-21T10:19:06.867Z,81.90
2019-01-21T10:20:07.138Z,81.90
2019-01-21T10:21:06.672Z,81.90
2019-01-21T10:23:07.224Z,81.90
2019-01-21T10:23:12.109Z,81.90
2019-01-21T10:24:05.043Z,81.80
2019-01-21T10:25:07.203Z,81.80
2019-01-21T10:26:06.882Z,81.90
2019-01-21T10:27:11.064Z,81.90
2019-01-21T10:28:12.647Z,81.90
2019-01-21T10:29:07.027Z,81.90
2019-01-21T10:30:07.887Z,81.90
2019-01-21T10:31:07.226Z,81.90
2019-01-21T10:32:06.886Z,81.90
2019-01-21T10:33:12.647Z,81.90
2019-01-21T10:34:07.188Z,81.90
2019-01-21T10:35:06.846Z,81.80
2019-01-21T10:36:07.195Z,82.00
2019-01-21T10:37:08.027Z,81.90
2019-01-21T10:38:07.166Z,81.90
2019-01-21T10:39:06.856Z,81.90
2019-01-21T10:40:08.498Z,81.70
2019-01-21T10:41:07.222Z,81.70
2019-01-21T10:42:07.007Z,81.70
2019-01-21T10:43:07.679Z,81.70
2019-01-21T10:44:07.065Z,81.70
2019-01-21T10:45:07.819Z,81.90
2019-01-21T10:46:07.251Z,81.90
2019-01-21T10:47:06.875Z,81.90
2019-01-21T10:48:07.233Z,81.80
2019-01-21T10:49:06.941Z,81.70
2019-01-21T10:50:07.563Z,81.70
2019-01-21T10:51:15.720Z,81.50
2019-01-21T10:52:07.222Z,81.50
2019-01-21T10:53:07.018Z,81.40
2019-01-21T10:54:05.025Z,81.30
2019-01-21T10:55:07.247Z,81.30
2019-01-21T10:56:06.703Z,81.30
2019-01-21T10:57:10.890Z,81.50
2019-01-21T10:58:07.219Z,81.50
2019-01-21T10:59:07.015Z,81.50
2019-01-21T11:00:07.687Z,81.40
2019-01-21T11:01:07.260Z,81.40
2019-01-21T11:02:07.924Z,81.40
2019-01-21T11:03:07.258Z,81.40
2019-01-21T11:04:07.040Z,81.40
2019-01-21T11:05:06.635Z,81.40
2019-01-21T11:06:08.236Z,81.30
2019-01-21T11:07:06.724Z,81.40
2019-01-21T11:08:08.387Z,81.20
2019-01-21T11:09:07.944Z,81.40
2019-01-21T11:10:07.270Z,81.20
2019-01-21T11:11:07.109Z,81.30
2019-01-21T11:12:06.781Z,81.20
2019-01-21T11:13:07.487Z,81.20
2019-01-21T11:14:07.285Z,81.20
2019-01-21T11:15:10.565Z,81.40
2019-01-21T11:16:07.189Z,81.40
2019-01-21T11:17:07.247Z,81.30
2019-01-21T11:18:08.121Z,81.30
2019-01-21T11:19:06.853Z,81.20
2019-01-21T11:20:07.393Z,81.20
2019-01-21T11:21:07.398Z,81.20
2019-01-21T11:22:07.119Z,81.20
2019-01-21T11:23:07.040Z,81.10
2019-01-21T11:24:10.313Z,81.20
2019-01-21T11:25:06.941Z,81.10
2019-01-21T11:26:13.476Z,81.20
2019-01-21T11:27:07.034Z,81.20
2019-01-21T11:28:06.847Z,81.20
2019-01-21T11:29:07.385Z,81.20
2019-01-21T11:30:10.864Z,81.10
2019-01-21T11:31:07.425Z,81.10
2019-01-21T11:32:07.234Z,81.00
2019-01-21T11:33:07.225Z,80.90
2019-01-21T11:34:08.125Z,80.90
2019-01-21T11:35:06.806Z,80.90
2019-01-21T11:36:07.428Z,80.90
2019-01-21T11:37:07.225Z,80.90
2019-01-21T11:38:07.941Z,80.90
2019-01-21T11:39:07.459Z,81.00
2019-01-21T11:40:08.166Z,80.90
2019-01-21T11:41:06.755Z,80.90
2019-01-21T11:42:07.293Z,80.90
2019-01-21T11:43:07.004Z,80.80
2019-01-21T11:44:07.643Z,81.10
2019-01-21T11:45:07.060Z,80.90
2019-01-21T11:46:06.903Z,80.90
2019-01-21T11:47:10.142Z,80.80
2019-01-21T11:48:06.719Z,80.70
2019-01-21T11:49:07.267Z,80.70
2019-01-21T11:50:10.895Z,80.80
2019-01-21T11:51:10.153Z,80.80
2019-01-21T11:52:06.665Z,80.80
2019-01-21T11:53:07.303Z,80.80
2019-01-21T11:54:06.940Z,80.80
2019-01-21T11:55:07.232Z,80.90
2019-01-21T11:56:06.760Z,80.80
2019-01-21T11:57:07.250Z,80.80
2019-01-21T11:58:06.879Z,80.80
2019-01-21T11:59:07.272Z,80.70
2019-01-21T12:00:08.007Z,80.60
2019-01-21T12:01:11.040Z,80.60
2019-01-21T12:02:07.285Z,80.70
2019-01-21T12:03:10.640Z,80.70
2019-01-21T12:04:07.275Z,80.80
2019-01-21T12:05:06.929Z,80.80
2019-01-21T12:06:10.189Z,80.80
2019-01-21T12:07:10.137Z,80.80
2019-01-21T12:08:06.715Z,80.80
2019-01-21T12:09:07.320Z,80.70
2019-01-21T12:10:06.982Z,80.60
2019-01-21T12:11:07.681Z,80.50
2019-01-21T12:12:07.288Z,80.60
2019-01-21T12:13:07.014Z,80.50
2019-01-21T12:14:05.048Z,80.60
2019-01-21T12:15:07.267Z,80.60
2019-01-21T12:16:06.787Z,80.60
2019-01-21T12:17:07.313Z,80.50
2019-01-21T12:18:06.947Z,80.70
2019-01-21T12:19:10.277Z,80.70
2019-01-21T12:20:06.761Z,80.70
2019-01-21T12:21:07.265Z,80.60
2019-01-21T12:22:07.897Z,80.50
2019-01-21T12:23:07.302Z,80.50
2019-01-21T12:24:06.950Z,80.50
2019-01-21T12:25:05.065Z,80.50
2019-01-21T12:26:05.025Z,80.50
2019-01-21T12:27:08.440Z,80.60
2019-01-21T12:28:10.456Z,80.60
2019-01-21T12:29:07.924Z,80.50
2019-01-21T12:30:07.264Z,80.50
2019-01-21T12:31:07.930Z,80.50
2019-01-21T12:33:10.258Z,80.30
2019-01-21T12:34:08.131Z,80.30
2019-01-21T12:35:05.047Z,80.40
2019-01-21T12:36:07.260Z,80.10
2019-01-21T12:37:08.028Z,80.30
2019-01-21T12:38:04.967Z,80.10
2019-01-21T12:39:10.909Z,80.10
2019-01-21T12:40:08.412Z,80.10
2019-01-21T12:41:06.791Z,80.10
2019-01-21T12:42:07.303Z,80.00
2019-01-21T12:43:08.104Z,80.00
2019-01-21T12:44:05.081Z,80.00
2019-01-21T12:45:05.025Z,80.00
2019-01-21T12:46:05.134Z,79.90
2019-01-21T12:47:07.362Z,79.90
2019-01-21T12:48:06.941Z,79.80
2019-01-21T12:49:05.165Z,79.80
2019-01-21T12:50:07.284Z,79.80
2019-01-21T12:51:07.906Z,79.80
2019-01-21T12:52:11.022Z,79.70
2019-01-21T12:53:07.525Z,79.70
2019-01-21T12:54:07.082Z,79.70
2019-01-21T12:55:10.326Z,79.60
2019-01-21T12:56:06.822Z,79.60
2019-01-21T12:57:07.074Z,79.60
2019-01-21T12:58:07.707Z,79.30
2019-01-21T12:59:15.816Z,79.30
2019-01-21T13:00:08.477Z,79.10
2019-01-21T13:01:08.031Z,79.10
2019-01-21T13:02:11.046Z,79.00
2019-01-21T13:03:05.062Z,79.00
2019-01-21T13:04:10.342Z,79.00
2019-01-21T13:05:06.824Z,79.00
2019-01-21T13:06:07.307Z,79.10
2019-01-21T13:07:06.992Z,79.10
2019-01-21T13:08:05.191Z,79.20
2019-01-21T13:09:07.312Z,79.00
2019-01-21T13:10:06.807Z,79.00
2019-01-21T13:11:07.336Z,79.20
2019-01-21T13:13:07.332Z,79.20
2019-01-21T13:14:06.811Z,79.20
2019-01-21T13:15:06.788Z,79.30